createdAt,value
2023-02-13T00:00:20.201Z,6.94
2023-02-13T00:02:47.176Z,6.96
2023-02-13T00:05:13.748Z,6.96
2023-02-13T00:07:40.288Z,6.96
2023-02-13T00:10:08.076Z,6.95
2023-02-13T00:12:34.617Z,6.94
2023-02-13T00:15:01.306Z,6.95
2023-02-13T00:17:28.035Z,6.93
2023-02-13T00:19:54.478Z,6.93
2023-02-13T00:22:20.957Z,6.91
2023-02-13T00:24:47.374Z,6.91
2023-02-13T00:27:13.902Z,6.92
2023-02-13T00:29:40.374Z,6.89
2023-02-13T00:32:07.178Z,6.92
2023-02-13T00:34:33.745Z,6.89
2023-02-13T00:37:02.976Z,6.87
2023-02-13T00:39:29.785Z,6.88
2023-02-13T00:41:56.193Z,6.88
2023-02-13T00:44:22.601Z,6.85
2023-02-13T00:46:49.092Z,6.84
2023-02-13T00:49:16.776Z,6.85
2023-02-13T00:51:43.182Z,6.86
2023-02-13T00:54:09.581Z,6.85
2023-02-13T00:56:36.556Z,6.87
2023-02-13T00:59:03.353Z,6.85
2023-02-13T01:01:29.946Z,6.85
2023-02-13T01:03:56.648Z,6.83
2023-02-13T01:06:23.118Z,6.84
2023-02-13T01:08:49.534Z,6.81
2023-02-13T01:11:16.033Z,6.79
2023-02-13T01:13:43.887Z,6.79
2023-02-13T01:16:11.090Z,6.79
2023-02-13T01:18:38.628Z,6.78
2023-02-13T01:21:07.777Z,6.78
2023-02-13T01:23:37.744Z,6.75
2023-02-13T01:26:05.863Z,6.74
2023-02-13T01:28:32.527Z,6.73
2023-02-13T01:30:59.667Z,6.72
2023-02-13T01:33:28.370Z,6.72
2023-02-13T01:35:54.915Z,6.71
2023-02-13T01:38:21.863Z,6.70
2023-02-13T01:40:50.798Z,6.70
2023-02-13T01:43:17.875Z,6.71
2023-02-13T01:45:47.211Z,6.71
2023-02-13T01:48:17.749Z,6.72
2023-02-13T01:50:51.767Z,6.71
2023-02-13T01:53:26.629Z,6.70
2023-02-13T01:55:55.329Z,6.69
2023-02-13T01:58:26.929Z,6.69
2023-02-13T02:00:53.451Z,6.67
2023-02-13T02:03:37.637Z,6.66
2023-02-13T02:06:14.351Z,6.66
2023-02-13T02:08:40.940Z,6.66
2023-02-13T02:11:16.240Z,6.64
2023-02-13T02:13:44.481Z,6.63
2023-02-13T02:16:11.052Z,6.65
2023-02-13T02:18:37.551Z,6.63
2023-02-13T02:21:10.221Z,6.64
2023-02-13T02:23:45.781Z,6.63
2023-02-13T02:26:24.394Z,6.63
2023-02-13T02:28:56.928Z,6.64
2023-02-13T02:31:55.015Z,6.64
2023-02-13T02:34:45.333Z,6.64
2023-02-13T02:37:29.472Z,6.65
2023-02-13T02:40:14.086Z,6.66
2023-02-13T02:43:08.644Z,6.65
2023-02-13T02:45:50.686Z,6.66
2023-02-13T02:48:56.335Z,6.64
2023-02-13T02:51:31.986Z,6.62
2023-02-13T02:54:32.479Z,6.64
2023-02-13T02:57:10.527Z,6.64
2023-02-13T02:59:58.488Z,6.64
2023-02-13T03:02:44.231Z,6.65
2023-02-13T03:05:45.090Z,6.63
2023-02-13T03:08:12.437Z,6.63
2023-02-13T03:10:58.042Z,6.62
2023-02-13T03:13:36.618Z,6.63
2023-02-13T03:16:22.338Z,6.60
2023-02-13T03:19:15.586Z,6.60
2023-02-13T03:22:09.494Z,6.62
2023-02-13T03:25:06.598Z,6.61
2023-02-13T03:27:51.726Z,6.62
2023-02-13T03:30:30.454Z,6.62
2023-02-13T03:33:21.062Z,6.60
2023-02-13T03:36:34.071Z,6.61
2023-02-13T03:39:18.932Z,6.62
2023-02-13T03:41:58.252Z,6.59
2023-02-13T03:44:27.756Z,6.60
2023-02-13T03:46:58.327Z,6.62
2023-02-13T03:49:54.423Z,6.62
2023-02-13T03:52:24.656Z,6.63
2023-02-13T03:55:20.064Z,6.61
2023-02-13T03:58:07.060Z,6.63
2023-02-13T04:00:41.396Z,6.63
2023-02-13T04:03:20.192Z,6.60
2023-02-13T04:05:59.354Z,6.62
2023-02-13T04:08:25.830Z,6.61
2023-02-13T04:11:02.661Z,6.61
2023-02-13T04:13:43.433Z,6.62
2023-02-13T04:16:11.475Z,6.61
2023-02-13T04:18:39.232Z,6.62
2023-02-13T04:21:07.641Z,6.62
2023-02-13T04:23:36.747Z,6.62
2023-02-13T04:26:09.032Z,6.61
2023-02-13T04:28:35.612Z,6.62
2023-02-13T04:31:02.464Z,6.64
2023-02-13T04:33:29.078Z,6.64
2023-02-13T04:35:56.790Z,6.65
2023-02-13T04:38:23.290Z,6.62
2023-02-13T04:40:49.759Z,6.62
2023-02-13T04:43:16.206Z,6.60
2023-02-13T04:45:42.664Z,6.61
2023-02-13T04:48:09.738Z,6.60
2023-02-13T04:50:36.146Z,6.60
2023-02-13T04:53:02.589Z,6.58
2023-02-13T04:55:30.209Z,6.60
2023-02-13T04:57:57.267Z,6.58
2023-02-13T05:00:26.132Z,6.58
2023-02-13T05:02:53.558Z,6.58
2023-02-13T05:05:21.358Z,6.57
2023-02-13T05:07:48.122Z,6.58
2023-02-13T05:10:14.597Z,6.59
2023-02-13T05:12:41.314Z,6.59
2023-02-13T05:15:08.583Z,6.61
2023-02-13T05:17:35.051Z,6.60
2023-02-13T05:20:01.515Z,6.61
2023-02-13T05:22:46.692Z,6.58
2023-02-13T05:25:13.156Z,6.60
2023-02-13T05:27:39.627Z,6.57
2023-02-13T05:30:06.667Z,6.58
2023-02-13T05:32:33.203Z,6.58
2023-02-13T05:34:59.604Z,6.57
2023-02-13T05:37:26.186Z,6.56
2023-02-13T05:39:52.647Z,6.57
2023-02-13T05:42:19.170Z,6.55
2023-02-13T05:44:45.580Z,6.56
2023-02-13T05:47:12.227Z,6.55
2023-02-13T05:49:38.705Z,6.56
2023-02-13T05:52:05.191Z,6.55
2023-02-13T05:54:31.738Z,6.54
2023-02-13T05:56:58.248Z,6.55
2023-02-13T05:59:24.681Z,6.55
2023-02-13T06:01:51.166Z,6.57
2023-02-13T06:04:17.653Z,6.56
2023-02-13T06:06:45.479Z,6.57
2023-02-13T06:09:12.190Z,6.57
2023-02-13T06:11:38.654Z,6.55
2023-02-13T06:14:05.151Z,6.58
2023-02-13T06:16:31.612Z,6.58
2023-02-13T06:18:58.359Z,6.58
2023-02-13T06:21:24.831Z,6.58
2023-02-13T06:23:51.297Z,6.60
2023-02-13T06:26:18.676Z,6.60
2023-02-13T06:28:45.221Z,6.61
2023-02-13T06:31:11.862Z,6.61
2023-02-13T06:33:38.456Z,6.63
2023-02-13T06:36:05.161Z,6.63
2023-02-13T06:38:32.105Z,6.63
2023-02-13T06:41:01.685Z,6.65
2023-02-13T06:43:28.752Z,6.64
2023-02-13T06:45:55.490Z,6.64
2023-02-13T06:48:22.218Z,6.67
2023-02-13T06:50:48.779Z,6.66
2023-02-13T06:53:15.347Z,6.67
2023-02-13T06:55:41.863Z,6.67
2023-02-13T06:58:08.362Z,6.64
2023-02-13T07:00:35.460Z,6.64
2023-02-13T07:03:04.039Z,6.65
2023-02-13T07:05:30.853Z,6.66
2023-02-13T07:07:57.415Z,6.68
2023-02-13T07:10:24.289Z,6.69
2023-02-13T07:13:03.670Z,6.71
2023-02-13T07:15:33.096Z,6.72
2023-02-13T07:18:00.419Z,6.75
2023-02-13T07:20:27.479Z,6.77
2023-02-13T07:22:58.855Z,6.79
2023-02-13T07:25:25.429Z,6.80
2023-02-13T07:27:51.870Z,6.81
2023-02-13T07:30:18.689Z,6.82
2023-02-13T07:32:45.149Z,6.85
2023-02-13T07:35:11.634Z,6.87
2023-02-13T07:37:38.050Z,6.88
2023-02-13T07:40:06.506Z,6.90
2023-02-13T07:42:34.723Z,6.93
2023-02-13T07:45:01.446Z,6.96
2023-02-13T07:47:27.928Z,6.97
2023-02-13T07:49:54.987Z,7.00
2023-02-13T07:52:21.547Z,7.04
2023-02-13T07:54:48.232Z,7.10
2023-02-13T07:57:16.062Z,7.14
2023-02-13T07:59:42.869Z,7.18
2023-02-13T08:02:14.341Z,7.21
2023-02-13T08:04:41.393Z,7.26
2023-02-13T08:07:07.856Z,7.31
2023-02-13T08:09:52.632Z,7.36
2023-02-13T08:12:19.109Z,7.41
2023-02-13T08:14:45.562Z,7.48
2023-02-13T08:17:12.233Z,7.51
2023-02-13T08:19:38.934Z,7.55
2023-02-13T08:22:05.500Z,7.59
2023-02-13T08:24:33.016Z,7.64
2023-02-13T08:26:59.532Z,7.71
2023-02-13T08:29:25.988Z,7.73
2023-02-13T08:31:52.564Z,7.82
2023-02-13T08:34:19.267Z,7.96
2023-02-13T08:36:45.729Z,8.09
2023-02-13T08:39:12.321Z,8.14
2023-02-13T08:41:38.833Z,8.16
2023-02-13T08:44:05.479Z,8.22
2023-02-13T08:46:32.071Z,8.31
2023-02-13T08:48:58.611Z,8.38
2023-02-13T08:51:25.117Z,8.46
2023-02-13T08:53:51.694Z,8.58
2023-02-13T08:56:18.418Z,8.75
2023-02-13T08:58:47.796Z,8.89
2023-02-13T09:01:14.332Z,9.07
2023-02-13T09:03:40.814Z,9.34
2023-02-13T09:06:07.546Z,9.60
2023-02-13T09:08:37.083Z,9.73
2023-02-13T09:11:05.639Z,9.92
2023-02-13T09:13:34.395Z,9.96
2023-02-13T09:16:02.926Z,9.79
2023-02-13T09:18:29.474Z,10.01
2023-02-13T09:21:08.151Z,10.55
2023-02-13T09:23:36.647Z,10.83
2023-02-13T09:26:06.045Z,11.48
2023-02-13T09:28:34.764Z,11.49
2023-02-13T09:31:09.456Z,11.11
2023-02-13T09:33:36.396Z,11.38
2023-02-13T09:36:07.457Z,11.72
2023-02-13T09:38:35.058Z,11.40
2023-02-13T09:41:14.084Z,12.69
2023-02-13T09:43:45.032Z,12.91
2023-02-13T09:46:17.318Z,14.20
2023-02-13T09:48:47.159Z,14.07
2023-02-13T09:51:17.345Z,14.79
2023-02-13T09:53:51.191Z,16.61
2023-02-13T09:56:26.793Z,16.25
2023-02-13T09:59:06.415Z,13.71
2023-02-13T10:01:44.057Z,12.53
2023-02-13T10:04:49.541Z,13.17
2023-02-13T10:07:27.147Z,14.22
2023-02-13T10:10:19.466Z,17.46
2023-02-13T10:12:55.984Z,15.63
2023-02-13T10:15:41.925Z,15.98
2023-02-13T10:18:16.826Z,18.96
2023-02-13T10:20:53.175Z,17.15
2023-02-13T10:23:43.568Z,15.40
2023-02-13T10:26:21.092Z,15.12
2023-02-13T10:29:18.827Z,15.28
2023-02-13T10:31:49.688Z,16.85
2023-02-13T10:34:17.795Z,19.25
2023-02-13T10:36:46.248Z,18.99
2023-02-13T10:39:18.695Z,17.05
2023-02-13T10:42:36.543Z,15.46
2023-02-13T10:45:39.065Z,16.07
2023-02-13T10:48:20.757Z,17.82
2023-02-13T10:51:00.933Z,19.67
2023-02-13T10:53:54.675Z,16.96
2023-02-13T10:56:37.005Z,15.62
2023-02-13T10:59:22.202Z,15.70
2023-02-13T11:02:02.181Z,16.92
2023-02-13T11:04:29.477Z,19.28
2023-02-13T11:06:59.504Z,20.86
2023-02-13T11:09:26.742Z,20.90
2023-02-13T11:11:53.479Z,20.53
2023-02-13T11:14:25.614Z,21.32
2023-02-13T11:16:59.684Z,21.90
2023-02-13T11:19:34.323Z,21.38
2023-02-13T11:22:08.685Z,21.02
2023-02-13T11:24:35.721Z,21.78
2023-02-13T11:27:09.362Z,21.45
2023-02-13T11:29:38.159Z,20.28
2023-02-13T11:32:22.158Z,20.87
2023-02-13T11:34:54.562Z,20.42
2023-02-13T11:37:24.861Z,19.96
2023-02-13T11:39:54.175Z,18.79
2023-02-13T11:42:33.833Z,18.50
2023-02-13T11:45:35.624Z,16.00
2023-02-13T11:48:16.446Z,15.11
2023-02-13T11:50:46.195Z,14.50
2023-02-13T11:53:25.655Z,14.11
2023-02-13T11:56:03.081Z,13.85
2023-02-13T11:58:31.240Z,13.62
2023-02-13T12:01:22.296Z,13.51
2023-02-13T12:04:16.129Z,13.32
2023-02-13T12:06:59.349Z,13.38
2023-02-13T12:09:27.304Z,13.28
2023-02-13T12:11:57.593Z,13.20
2023-02-13T12:14:31.493Z,13.17
2023-02-13T12:17:05.242Z,13.04
2023-02-13T12:19:38.232Z,13.04
2023-02-13T12:22:14.917Z,13.24
2023-02-13T12:25:01.584Z,13.09
2023-02-13T12:27:46.546Z,12.64
2023-02-13T12:30:27.908Z,12.34
2023-02-13T12:33:18.268Z,12.63
2023-02-13T12:35:50.801Z,12.58
2023-02-13T12:38:24.300Z,12.28
2023-02-13T12:41:19.959Z,12.45
2023-02-13T12:44:08.380Z,12.76
2023-02-13T12:46:47.358Z,12.82
2023-02-13T12:49:43.482Z,12.82
2023-02-13T12:52:33.043Z,12.48
2023-02-13T12:55:38.654Z,12.52
2023-02-13T12:58:40.191Z,12.54
2023-02-13T13:01:20.299Z,12.67
2023-02-13T13:04:20.801Z,12.68
2023-02-13T13:06:53.467Z,12.60
2023-02-13T13:09:50.051Z,12.47
2023-02-13T13:12:49.812Z,12.39
2023-02-13T13:16:17.195Z,12.46
2023-02-13T13:18:57.222Z,12.54
2023-02-13T13:21:46.609Z,12.55
2023-02-13T13:24:31.818Z,12.50
2023-02-13T13:27:00.565Z,12.43
2023-02-13T13:29:44.258Z,12.42
2023-02-13T13:32:21.095Z,12.41
2023-02-13T13:34:47.734Z,12.46
2023-02-13T13:37:23.245Z,12.41
2023-02-13T13:40:05.362Z,12.35
2023-02-13T13:42:42.142Z,12.35
2023-02-13T13:45:34.707Z,12.40
2023-02-13T13:48:40.552Z,12.42
2023-02-13T13:51:09.727Z,12.46
2023-02-13T13:53:38.344Z,12.40
2023-02-13T13:56:06.605Z,12.41
2023-02-13T13:58:46.668Z,12.41
2023-02-13T14:01:21.098Z,12.39
2023-02-13T14:04:06.265Z,12.37
2023-02-13T14:06:44.698Z,12.40
2023-02-13T14:09:39.090Z,12.36
2023-02-13T14:12:45.350Z,12.31
2023-02-13T14:15:34.942Z,12.34
2023-02-13T14:18:11.734Z,12.30
2023-02-13T14:20:49.638Z,12.31
2023-02-13T14:23:50.604Z,12.32
2023-02-13T14:26:18.458Z,12.28
2023-02-13T14:28:50.810Z,12.23
2023-02-13T14:31:27.413Z,12.23
2023-02-13T14:34:07.456Z,12.19
2023-02-13T14:36:39.956Z,12.18
2023-02-13T14:39:20.034Z,12.10
2023-02-13T14:41:55.479Z,13.39
2023-02-13T14:44:54.494Z,14.56
2023-02-13T14:47:56.621Z,13.60
2023-02-13T14:50:31.674Z,12.75
2023-02-13T14:53:05.434Z,12.40
2023-02-13T14:55:36.207Z,12.22
2023-02-13T14:58:15.951Z,12.04
2023-02-13T15:01:00.879Z,11.94
2023-02-13T15:04:05.386Z,11.89
2023-02-13T15:06:38.593Z,11.84
2023-02-13T15:09:18.327Z,11.77
2023-02-13T15:11:45.036Z,11.70
2023-02-13T15:14:35.450Z,11.63
2023-02-13T15:17:21.820Z,11.58
2023-02-13T15:19:51.763Z,11.56
2023-02-13T15:22:21.833Z,11.50
2023-02-13T15:24:50.059Z,11.47
2023-02-13T15:27:31.676Z,11.41
2023-02-13T15:30:03.423Z,11.36
2023-02-13T15:32:39.001Z,11.34
2023-02-13T15:35:30.978Z,11.32
2023-02-13T15:37:59.008Z,11.29
2023-02-13T15:40:36.496Z,11.23
2023-02-13T15:43:04.053Z,11.17
2023-02-13T15:45:30.686Z,11.10
2023-02-13T15:47:58.030Z,11.02
2023-02-13T15:50:34.833Z,10.98
2023-02-13T15:53:05.588Z,10.92
2023-02-13T15:55:36.171Z,10.89
2023-02-13T15:58:03.465Z,10.83
2023-02-13T16:00:39.391Z,10.78
2023-02-13T16:03:08.680Z,10.73
2023-02-13T16:05:41.442Z,10.67
2023-02-13T16:08:35.865Z,10.59
2023-02-13T16:11:24.558Z,10.49
2023-02-13T16:14:08.168Z,10.42
2023-02-13T16:16:48.808Z,10.37
2023-02-13T16:19:35.401Z,10.33
2023-02-13T16:22:07.999Z,10.25
2023-02-13T16:24:36.440Z,10.19
2023-02-13T16:27:05.166Z,10.12
2023-02-13T16:29:31.844Z,10.04
2023-02-13T16:32:07.722Z,9.98
2023-02-13T16:34:34.356Z,9.94
2023-02-13T16:37:00.882Z,9.84
2023-02-13T16:39:30.235Z,9.77
2023-02-13T16:42:00.984Z,9.71
2023-02-13T16:44:30.246Z,9.66
2023-02-13T16:47:01.387Z,9.56
2023-02-13T16:49:31.049Z,9.47
2023-02-13T16:52:10.702Z,9.37
2023-02-13T16:54:51.099Z,9.27
2023-02-13T16:57:22.011Z,9.10
2023-02-13T16:59:48.717Z,8.96
2023-02-13T17:02:23.164Z,8.85
2023-02-13T17:04:51.226Z,8.74
2023-02-13T17:07:29.789Z,8.64
2023-02-13T17:10:08.663Z,8.52
2023-02-13T17:12:38.088Z,8.45
2023-02-13T17:15:07.391Z,8.39
2023-02-13T17:17:33.977Z,8.30
2023-02-13T17:20:00.835Z,8.21
2023-02-13T17:22:33.211Z,8.14
2023-02-13T17:25:01.896Z,8.06
2023-02-13T17:27:28.439Z,8.00
2023-02-13T17:29:55.011Z,7.94
2023-02-13T17:32:24.757Z,7.87
2023-02-13T17:34:51.313Z,7.80
2023-02-13T17:37:23.776Z,7.70
2023-02-13T17:39:51.036Z,7.63
2023-02-13T17:42:25.020Z,7.56
2023-02-13T17:44:55.767Z,7.51
2023-02-13T17:47:23.259Z,7.42
2023-02-13T17:49:49.928Z,7.45
2023-02-13T17:52:22.707Z,7.40
2023-02-13T17:54:49.201Z,7.29
2023-02-13T17:57:17.806Z,7.22
2023-02-13T17:59:46.119Z,7.17
2023-02-13T18:02:15.855Z,7.09
2023-02-13T18:04:42.542Z,7.00
2023-02-13T18:07:10.931Z,6.94
2023-02-13T18:09:37.819Z,6.87
2023-02-13T18:12:05.932Z,6.83
2023-02-13T18:14:33.969Z,6.80
2023-02-13T18:17:00.515Z,6.73
2023-02-13T18:19:27.899Z,6.68
2023-02-13T18:21:54.406Z,6.60
2023-02-13T18:24:20.956Z,6.54
2023-02-13T18:26:47.419Z,6.49
2023-02-13T18:29:13.966Z,6.46
2023-02-13T18:31:40.664Z,6.39
2023-02-13T18:34:07.587Z,6.33
2023-02-13T18:36:34.085Z,6.27
2023-02-13T18:39:00.606Z,6.20
2023-02-13T18:41:27.076Z,6.15
2023-02-13T18:43:57.011Z,6.13
2023-02-13T18:46:24.017Z,6.07
2023-02-13T18:48:50.433Z,6.04
2023-02-13T18:51:16.942Z,5.99
2023-02-13T18:53:43.934Z,5.97
2023-02-13T18:56:11.906Z,5.95
2023-02-13T18:58:38.691Z,5.92
2023-02-13T19:01:09.381Z,5.88
2023-02-13T19:03:37.286Z,5.84
2023-02-13T19:06:09.669Z,5.82
2023-02-13T19:08:36.551Z,5.82
2023-02-13T19:11:08.711Z,5.81
2023-02-13T19:13:35.990Z,5.81
2023-02-13T19:16:15.348Z,5.78
2023-02-13T19:18:47.248Z,5.79
2023-02-13T19:21:14.566Z,5.80
2023-02-13T19:23:41.400Z,5.76
2023-02-13T19:26:09.833Z,5.76
2023-02-13T19:28:37.253Z,5.74
2023-02-13T19:31:10.192Z,5.74
2023-02-13T19:33:37.368Z,5.74
2023-02-13T19:36:06.574Z,5.73
2023-02-13T19:38:33.117Z,5.71
2023-02-13T19:41:04.455Z,5.67
2023-02-13T19:43:30.975Z,5.65
2023-02-13T19:46:01.492Z,5.64
2023-02-13T19:48:27.989Z,5.61
2023-02-13T19:50:54.457Z,5.54
2023-02-13T19:53:20.901Z,5.48
2023-02-13T19:55:47.417Z,5.41
2023-02-13T19:58:14.045Z,5.34
2023-02-13T20:00:41.008Z,5.30
2023-02-13T20:03:07.602Z,5.28
2023-02-13T20:05:40.209Z,5.21
2023-02-13T20:08:06.752Z,5.13
2023-02-13T20:10:33.281Z,5.08
2023-02-13T20:13:00.036Z,5.04
2023-02-13T20:15:27.512Z,4.97
2023-02-13T20:17:54.014Z,4.93
2023-02-13T20:20:20.658Z,4.88
2023-02-13T20:22:48.596Z,4.81
2023-02-13T20:25:17.922Z,4.76
2023-02-13T20:27:45.518Z,4.71
2023-02-13T20:30:14.871Z,4.68
2023-02-13T20:32:41.690Z,4.64
2023-02-13T20:35:08.598Z,4.61
2023-02-13T20:37:35.190Z,4.57
2023-02-13T20:40:02.101Z,4.54
2023-02-13T20:42:28.778Z,4.49
2023-02-13T20:44:55.296Z,4.48
2023-02-13T20:47:21.767Z,4.43
2023-02-13T20:49:48.190Z,4.42
2023-02-13T20:52:14.689Z,4.41
2023-02-13T20:54:41.259Z,4.36
2023-02-13T20:57:07.761Z,4.33
2023-02-13T20:59:34.270Z,4.31
2023-02-13T21:02:00.805Z,4.26
2023-02-13T21:04:29.069Z,4.24
2023-02-13T21:06:55.765Z,4.19
2023-02-13T21:09:22.299Z,4.17
2023-02-13T21:11:48.824Z,4.16
2023-02-13T21:14:15.293Z,4.10
2023-02-13T21:16:42.864Z,4.07
2023-02-13T21:19:16.377Z,4.06
2023-02-13T21:21:44.247Z,4.03
2023-02-13T21:24:15.313Z,3.99
2023-02-13T21:26:43.022Z,3.98
2023-02-13T21:29:09.821Z,3.95
2023-02-13T21:31:51.103Z,3.93
2023-02-13T21:34:18.076Z,3.89
2023-02-13T21:36:45.042Z,3.87
2023-02-13T21:39:12.787Z,3.80
2023-02-13T21:41:40.414Z,3.75
2023-02-13T21:44:06.947Z,3.67
2023-02-13T21:46:34.038Z,3.66
2023-02-13T21:49:03.155Z,3.63
2023-02-13T21:51:31.579Z,3.60
2023-02-13T21:53:58.616Z,3.55
2023-02-13T21:56:31.681Z,3.52
2023-02-13T21:58:58.825Z,3.48
2023-02-13T22:01:34.283Z,3.48
2023-02-13T22:04:02.999Z,3.47
2023-02-13T22:06:31.371Z,3.41
2023-02-13T22:09:04.416Z,3.37
2023-02-13T22:11:31.110Z,3.39
2023-02-13T22:14:02.811Z,3.39
2023-02-13T22:16:30.885Z,3.37
2023-02-13T22:18:57.737Z,3.34
2023-02-13T22:21:26.574Z,3.30
2023-02-13T22:23:53.300Z,3.25
2023-02-13T22:26:25.943Z,3.22
2023-02-13T22:28:53.587Z,3.21
2023-02-13T22:31:24.847Z,3.16
2023-02-13T22:34:02.956Z,3.18
2023-02-13T22:36:30.879Z,3.16
2023-02-13T22:38:58.131Z,3.15
2023-02-13T22:41:25.755Z,3.12
2023-02-13T22:43:53.048Z,3.10
2023-02-13T22:46:26.022Z,3.06
2023-02-13T22:48:53.310Z,3.02
2023-02-13T22:51:23.055Z,3.00
2023-02-13T22:53:49.676Z,2.98
2023-02-13T22:56:16.281Z,2.92
2023-02-13T22:58:42.694Z,2.87
2023-02-13T23:01:11.867Z,2.85
2023-02-13T23:03:38.387Z,2.85
2023-02-13T23:06:05.741Z,2.83
2023-02-13T23:08:32.236Z,2.81
2023-02-13T23:11:17.363Z,2.79
2023-02-13T23:13:44.565Z,2.75
2023-02-13T23:16:14.652Z,2.70
2023-02-13T23:18:41.459Z,2.68
2023-02-13T23:21:08.292Z,2.65
2023-02-13T23:23:35.893Z,2.63
2023-02-13T23:26:06.939Z,2.61
2023-02-13T23:28:33.893Z,2.56
2023-02-13T23:31:01.500Z,2.51
2023-02-13T23:33:29.507Z,2.51
2023-02-13T23:35:56.266Z,2.48
2023-02-13T23:38:23.596Z,2.47
2023-02-13T23:40:50.238Z,2.46
2023-02-13T23:43:16.838Z,2.44
2023-02-13T23:45:43.290Z,2.39
2023-02-13T23:48:12.778Z,2.34
2023-02-13T23:50:40.229Z,2.32
2023-02-13T23:53:06.837Z,2.32
2023-02-13T23:55:33.229Z,2.28
2023-02-13T23:58:00.491Z,2.25
